Iruya, Argentina
Current Conditions -  °F | °C
As of 10:00 AM on Thursday 23 Oct 2014 (Local Time) from SLTJ Reporting Station
Scattered Clouds Scattered Clouds  
Wind Chill: 70°   Ceiling: Unl
Heat Index: 70°   Visibility: 5mi
Dew Point: 63°   Wind: 5mph
Humidity: 78%   Direction: 130°SE
Pressure: 30.21"   Gusts: NA
Location:  22.84°S, 65.23°W
Report Text: SLTJ 231300Z 13004KT 8000 SCT020 21/17 Q1023
Loading
Personal Weather Stations






























Interactive Weather Map
Tropical Storm Tracking
New forecast layout! Learn more

10-Day Weather Forecast

Advertisements
Track Severe Weather on mobile